Time;durP1;ratioP1;P1;durP2;ratioP2;P2;SDS_P1;SDS_P2;PMS_P1;PMS_P2;Temp;Humidity;BMP_temperature;BMP_pressure;BME280_temperature;BME280_humidity;BME280_pressure;Samples;Min_cycle;Max_cycle;Signal;HPM_P1;HPM_P2
2023/03/16 00:00:08;;;;;;;13.52;8.63;;;;;;;-144.87;100.00;61487.56;4999182;28;20037;-82
2023/03/16 00:02:34;;;;;;;17.50;9.60;;;;;;;-144.87;100.00;61487.56;4972953;28;20045;-81
2023/03/16 00:05:00;;;;;;;19.95;9.55;;;;;;;-144.87;100.00;61487.56;4953976;28;20143;-81
2023/03/16 00:07:28;;;;;;;20.25;9.45;;;;;;;-144.87;100.00;61487.56;4971821;28;20046;-80
2023/03/16 00:09:55;;;;;;;18.15;9.38;;;;;;;-144.87;100.00;61487.56;4975471;28;20038;-80
2023/03/16 00:12:21;;;;;;;16.27;9.25;;;;;;;-144.87;100.00;61487.56;4970717;28;20132;-82
2023/03/16 00:14:48;;;;;;;14.75;9.18;;;;;;;-144.87;100.00;61487.56;4969949;28;20042;-81
2023/03/16 00:17:20;;;;;;;18.77;9.00;;;;;;;-144.87;100.00;61487.56;5002603;28;20060;-81
2023/03/16 00:19:54;;;;;;;17.77;9.65;;;;;;;-144.87;100.00;61487.56;4940526;28;1305033;-81
2023/03/16 00:22:26;;;;;;;19.92;10.05;;;;;;;-144.87;100.00;61487.56;4986281;28;20065;-81
2023/03/16 00:24:53;;;;;;;17.13;9.05;;;;;;;-144.87;100.00;61487.56;4980052;28;20193;-81
2023/03/16 00:27:24;;;;;;;15.40;9.60;;;;;;;-144.87;100.00;61487.56;4984767;28;20052;-81
2023/03/16 00:29:54;;;;;;;15.60;9.13;;;;;;;-144.87;100.00;61487.56;4960889;28;20049;-80
2023/03/16 00:32:25;;;;;;;14.88;9.02;;;;;;;-144.87;100.00;61487.56;4968560;28;20050;-80
2023/03/16 00:34:52;;;;;;;15.43;8.75;;;;;;;-144.87;100.00;61487.56;4974651;28;20518;-81
2023/03/16 00:37:22;;;;;;;14.95;9.13;;;;;;;-144.87;100.00;61487.56;4974214;28;20039;-80
2023/03/16 00:47:53;;;;;;;14.82;9.13;;;;;;;-144.87;100.00;61487.56;4971460;28;20054;-80
2023/03/16 00:50:21;;;;;;;14.68;8.98;;;;;;;-144.87;100.00;61487.56;4974231;28;20600;-80
2023/03/16 00:52:47;;;;;;;12.98;9.20;;;;;;;-144.87;100.00;61487.56;4943190;28;20066;-81
2023/03/16 00:55:14;;;;;;;15.35;9.75;;;;;;;-144.87;100.00;61487.56;4938271;28;20558;-80
2023/03/16 00:57:41;;;;;;;16.92;9.30;;;;;;;-144.87;100.00;61487.56;4977298;28;20068;-79
2023/03/16 01:00:11;;;;;;;12.80;8.85;;;;;;;-144.87;100.00;61487.56;4960247;28;20480;-80
2023/03/16 01:02:38;;;;;;;16.85;9.32;;;;;;;-144.87;100.00;61487.56;4963325;28;20039;-82
2023/03/16 01:05:05;;;;;;;15.95;9.15;;;;;;;-144.87;100.00;61487.56;4985270;28;20034;-81
2023/03/16 01:07:31;;;;;;;13.48;9.52;;;;;;;-144.87;100.00;61487.56;4942552;28;20092;-82
2023/03/16 01:09:57;;;;;;;17.48;9.75;;;;;;;-144.87;100.00;61487.56;4965663;28;20031;-80
2023/03/16 01:12:26;;;;;;;14.32;9.27;;;;;;;-144.87;100.00;61487.56;4957862;28;20050;-80
2023/03/16 01:14:54;;;;;;;20.30;10.43;;;;;;;-144.87;100.00;61487.56;4960256;28;20079;-82
2023/03/16 01:17:21;;;;;;;12.82;9.10;;;;;;;-144.87;100.00;61487.56;4955800;28;20042;-82
2023/03/16 01:19:50;;;;;;;18.35;9.68;;;;;;;-144.87;100.00;61487.56;4982052;28;20046;-81
2023/03/16 01:22:17;;;;;;;15.48;10.13;;;;;;;-144.87;100.00;61487.56;4960730;28;20086;-81
2023/03/16 01:24:44;;;;;;;14.50;9.77;;;;;;;-144.87;100.00;61487.56;4976328;28;20081;-80
2023/03/16 01:27:11;;;;;;;13.10;9.55;;;;;;;-144.87;100.00;61487.56;4962007;28;20029;-81
2023/03/16 01:29:39;;;;;;;14.65;9.85;;;;;;;-144.87;100.00;61487.56;4982860;28;20034;-82
2023/03/16 01:32:06;;;;;;;15.32;9.38;;;;;;;-144.87;100.00;61487.56;4976276;28;20515;-82
2023/03/16 01:34:33;;;;;;;14.45;9.32;;;;;;;-144.87;100.00;61487.56;4953439;28;20522;-81
2023/03/16 01:37:00;;;;;;;14.63;10.00;;;;;;;-144.87;100.00;61487.56;4959320;28;20068;-82
2023/03/16 01:39:58;;;;;;;16.77;9.38;;;;;;;-144.87;100.00;61487.56;4952698;28;20054;-83
2023/03/16 01:42:25;;;;;;;16.67;9.85;;;;;;;-144.87;100.00;61487.56;4949845;28;20071;-81
2023/03/16 01:44:53;;;;;;;17.65;9.57;;;;;;;-144.87;100.00;61487.56;4970607;28;20034;-81
2023/03/16 01:47:21;;;;;;;16.08;10.15;;;;;;;-144.87;100.00;61487.56;4955474;28;20457;-82
2023/03/16 01:49:49;;;;;;;17.67;10.18;;;;;;;-144.87;100.00;61487.56;4953524;28;20027;-81
2023/03/16 01:52:25;;;;;;;17.70;9.93;;;;;;;-144.87;100.00;61487.56;4943168;28;20042;-82
2023/03/16 01:54:54;;;;;;;18.90;9.32;;;;;;;-144.87;100.00;61487.56;4975972;28;20033;-81
2023/03/16 01:57:23;;;;;;;16.38;9.75;;;;;;;-144.87;100.00;61487.56;4975564;28;20035;-82
2023/03/16 02:00:15;;;;;;;15.50;9.95;;;;;;;-144.87;100.00;61487.56;4973083;28;20030;-82
2023/03/16 02:02:43;;;;;;;16.17;9.85;;;;;;;-144.87;100.00;61487.56;4960783;28;20186;-82
2023/03/16 02:05:46;;;;;;;17.95;10.13;;;;;;;-144.87;100.00;61487.56;4944583;28;20030;-80
2023/03/16 02:08:16;;;;;;;14.88;9.68;;;;;;;-144.87;100.00;61487.56;4957611;28;20046;-82
2023/03/16 02:10:44;;;;;;;18.80;10.30;;;;;;;-144.87;100.00;61487.56;4958193;28;20054;-81
2023/03/16 02:13:11;;;;;;;15.73;9.73;;;;;;;-144.87;100.00;61487.56;4955243;28;20411;-81
2023/03/16 02:15:38;;;;;;;16.52;9.60;;;;;;;-144.87;100.00;61487.56;4961897;28;20041;-81
2023/03/16 02:18:06;;;;;;;17.05;9.70;;;;;;;-144.87;100.00;61487.56;4932500;28;20030;-82
2023/03/16 02:20:43;;;;;;;17.65;9.55;;;;;;;-144.87;100.00;61487.56;4960062;28;20034;-81
2023/03/16 02:23:17;;;;;;;14.63;9.30;;;;;;;-144.87;100.00;61487.56;4942649;28;20042;-81
2023/03/16 02:26:17;;;;;;;20.60;10.93;;;;;;;-144.87;100.00;61487.56;4970907;28;20085;-81
2023/03/16 02:29:21;;;;;;;17.98;9.38;;;;;;;-144.87;100.00;61487.56;4943337;28;20031;-81
2023/03/16 02:31:50;;;;;;;17.15;9.80;;;;;;;-144.87;100.00;61487.56;4961572;28;20096;-80
2023/03/16 02:34:17;;;;;;;20.27;10.93;;;;;;;-144.87;100.00;61487.56;4944620;28;20364;-81
2023/03/16 02:36:45;;;;;;;18.80;9.75;;;;;;;-144.87;100.00;61487.56;4972765;28;20034;-82
2023/03/16 02:39:12;;;;;;;14.98;9.73;;;;;;;-144.87;100.00;61487.56;4937975;28;20070;-82
2023/03/16 02:41:45;;;;;;;17.23;9.57;;;;;;;-144.87;100.00;61487.56;4954265;28;20046;-81
2023/03/16 02:44:16;;;;;;;18.38;10.52;;;;;;;-144.87;100.00;61487.56;4952633;28;20173;-80
2023/03/16 02:46:43;;;;;;;21.65;11.45;;;;;;;-144.87;100.00;61487.56;4967385;28;20078;-81
2023/03/16 02:49:37;;;;;;;14.98;9.60;;;;;;;-144.87;100.00;61487.56;4944904;28;20031;-81
2023/03/16 02:52:05;;;;;;;18.05;9.90;;;;;;;-144.87;100.00;61487.56;4959408;28;20497;-81
2023/03/16 02:54:31;;;;;;;19.45;10.00;;;;;;;-144.87;100.00;61487.56;4970417;28;20056;-82
2023/03/16 02:56:58;;;;;;;17.58;9.90;;;;;;;-144.87;100.00;61487.56;4960169;28;20044;-80
2023/03/16 02:59:26;;;;;;;17.60;9.63;;;;;;;-144.87;100.00;61487.56;4948309;28;20514;-80
2023/03/16 03:01:52;;;;;;;15.07;9.77;;;;;;;-144.87;100.00;61487.56;4937098;28;20050;-82
2023/03/16 03:04:22;;;;;;;18.83;9.90;;;;;;;-144.87;100.00;61487.56;4960716;28;20047;-80
2023/03/16 03:06:49;;;;;;;15.82;9.10;;;;;;;-144.87;100.00;61487.56;4942403;28;20038;-81
2023/03/16 03:09:16;;;;;;;12.98;8.77;;;;;;;-144.87;100.00;61487.56;4970447;28;20042;-81
2023/03/16 03:11:45;;;;;;;14.95;8.57;;;;;;;-144.87;100.00;61487.56;4940466;28;20042;-81
2023/03/16 03:14:17;;;;;;;10.88;8.05;;;;;;;-144.87;100.00;61487.56;4940966;28;20129;-81
2023/03/16 03:16:46;;;;;;;16.85;9.52;;;;;;;-144.87;100.00;61487.56;4942530;28;20031;-81
2023/03/16 03:19:13;;;;;;;16.60;10.02;;;;;;;-144.87;100.00;61487.56;4951227;28;20126;-80
2023/03/16 03:21:40;;;;;;;13.38;8.82;;;;;;;-144.87;100.00;61487.56;4953208;28;20485;-81
2023/03/16 03:24:07;;;;;;;15.82;9.02;;;;;;;-144.87;100.00;61487.56;4956696;28;20050;-80
2023/03/16 03:26:34;;;;;;;14.80;10.23;;;;;;;-144.87;100.00;61487.56;4973280;28;20038;-80
2023/03/16 03:29:02;;;;;;;13.77;8.57;;;;;;;-144.87;100.00;61487.56;4941211;28;20038;-80
2023/03/16 03:31:28;;;;;;;14.40;8.93;;;;;;;-144.87;100.00;61487.56;4935964;28;20430;-80
2023/03/16 03:33:57;;;;;;;15.85;10.35;;;;;;;-144.87;100.00;61487.56;4947377;28;20034;-80
2023/03/16 03:36:23;;;;;;;16.30;9.40;;;;;;;-144.87;100.00;61487.56;4938509;28;20105;-80
2023/03/16 03:38:49;;;;;;;15.95;9.38;;;;;;;-144.87;100.00;61487.56;4955489;28;20679;-81
2023/03/16 03:41:18;;;;;;;22.13;9.65;;;;;;;-144.87;100.00;61487.56;4954417;28;20026;-81
2023/03/16 03:43:45;;;;;;;19.30;10.13;;;;;;;-144.87;100.00;61487.56;4963788;28;20398;-81
2023/03/16 03:46:15;;;;;;;16.80;10.27;;;;;;;-144.87;100.00;61487.56;4959227;28;20137;-81
2023/03/16 03:48:41;;;;;;;18.02;9.70;;;;;;;-144.87;100.00;61487.56;4966894;28;20375;-80
2023/03/16 03:51:10;;;;;;;14.00;10.40;;;;;;;-144.87;100.00;61487.56;4955725;28;20041;-82
2023/03/16 03:53:55;;;;;;;20.27;9.55;;;;;;;-144.87;100.00;61487.56;4975256;28;20141;-81
2023/03/16 03:56:37;;;;;;;15.88;10.35;;;;;;;-144.87;100.00;61487.56;4951589;28;20121;-81
2023/03/16 03:59:08;;;;;;;21.85;10.05;;;;;;;-144.87;100.00;61487.56;4958666;28;20034;-80
2023/03/16 04:01:53;;;;;;;17.15;10.13;;;;;;;-144.87;100.00;61487.56;4943724;28;20046;-81
2023/03/16 04:04:21;;;;;;;17.73;10.60;;;;;;;-144.87;100.00;61487.56;4962426;28;20382;-82
2023/03/16 04:06:50;;;;;;;16.45;10.23;;;;;;;-144.87;100.00;61487.56;4964244;28;20062;-81
2023/03/16 04:09:16;;;;;;;19.83;10.65;;;;;;;-144.87;100.00;61487.56;4950667;28;20042;-82
2023/03/16 04:11:44;;;;;;;20.42;9.93;;;;;;;-144.87;100.00;61487.56;4955871;28;20130;-80
2023/03/16 04:14:11;;;;;;;19.60;10.45;;;;;;;-144.87;100.00;61487.56;4955021;28;20062;-80
2023/03/16 04:16:39;;;;;;;17.25;10.77;;;;;;;-144.87;100.00;61487.56;4958090;28;20075;-81
2023/03/16 04:19:06;;;;;;;16.20;10.25;;;;;;;-144.87;100.00;61487.56;4958517;28;20093;-81
2023/03/16 04:21:32;;;;;;;16.25;9.90;;;;;;;-144.87;100.00;61487.56;4943868;28;20492;-81
2023/03/16 04:24:02;;;;;;;18.95;10.27;;;;;;;-144.87;100.00;61487.56;4944323;28;20122;-81
2023/03/16 04:26:33;;;;;;;17.88;10.98;;;;;;;-144.87;100.00;61487.56;4943073;28;20053;-82
2023/03/16 04:29:02;;;;;;;15.70;10.70;;;;;;;-144.87;100.00;61487.56;4959969;28;20035;-82
2023/03/16 04:31:29;;;;;;;17.55;10.48;;;;;;;-144.87;100.00;61487.56;4939883;28;20042;-81
2023/03/16 04:33:56;;;;;;;21.85;10.05;;;;;;;-144.87;100.00;61487.56;4962763;28;20039;-81
2023/03/16 04:36:23;;;;;;;16.75;9.38;;;;;;;-144.87;100.00;61487.56;4977281;28;20070;-80
2023/03/16 04:38:50;;;;;;;19.35;9.90;;;;;;;-144.87;100.00;61487.56;4948640;28;20031;-81
2023/03/16 04:41:17;;;;;;;18.85;10.07;;;;;;;-144.87;100.00;61487.56;4937589;28;20038;-80
2023/03/16 04:44:09;;;;;;;16.73;9.93;;;;;;;-144.87;100.00;61487.56;4961197;28;20047;-81
2023/03/16 04:46:36;;;;;;;16.17;9.10;;;;;;;-144.87;100.00;61487.56;4972620;28;20054;-81
2023/03/16 04:49:08;;;;;;;12.65;8.80;;;;;;;-144.87;100.00;61487.56;4950023;28;20039;-81
2023/03/16 04:51:36;;;;;;;16.55;9.13;;;;;;;-144.87;100.00;61487.56;4938272;28;20027;-80
2023/03/16 04:54:14;;;;;;;14.45;8.57;;;;;;;-144.87;100.00;61487.56;4956278;28;20054;-80
2023/03/16 04:56:42;;;;;;;15.00;8.68;;;;;;;-144.87;100.00;61487.56;4961565;28;20049;-82
2023/03/16 04:59:22;;;;;;;16.45;8.98;;;;;;;-144.87;100.00;61487.56;4946138;28;20428;-82
2023/03/16 05:02:02;;;;;;;14.50;8.73;;;;;;;-144.87;100.00;61487.56;4943258;28;20616;-81
2023/03/16 05:04:29;;;;;;;15.35;8.57;;;;;;;-144.87;100.00;61487.56;4950147;28;20062;-80
2023/03/16 05:06:55;;;;;;;16.48;8.57;;;;;;;-144.87;100.00;61487.56;4942272;28;20086;-81
2023/03/16 05:09:26;;;;;;;15.77;8.80;;;;;;;-144.87;100.00;61487.56;4953561;28;20043;-81
2023/03/16 05:11:53;;;;;;;15.48;8.55;;;;;;;-144.87;100.00;61487.56;4966289;28;20054;-81
2023/03/16 05:14:19;;;;;;;15.05;8.77;;;;;;;-144.87;100.00;61487.56;4965442;28;20042;-81
2023/03/16 05:17:05;;;;;;;14.60;8.07;;;;;;;-144.87;100.00;61487.56;4964683;28;20508;-83
2023/03/16 05:19:32;;;;;;;17.55;9.63;;;;;;;-144.87;100.00;61487.56;4957024;28;20134;-81
2023/03/16 05:21:58;;;;;;;14.75;8.07;;;;;;;-144.87;100.00;61487.56;4978318;28;20455;-82
2023/03/16 05:24:25;;;;;;;12.48;8.25;;;;;;;-144.87;100.00;61487.56;4972077;28;20046;-82
2023/03/16 05:26:52;;;;;;;17.52;8.45;;;;;;;-144.87;100.00;61487.56;4971101;28;20046;-81
2023/03/16 05:29:21;;;;;;;17.48;8.95;;;;;;;-144.87;100.00;61487.56;4973351;28;20078;-80
2023/03/16 05:31:49;;;;;;;12.88;7.82;;;;;;;-144.87;100.00;61487.56;4932870;28;20034;-82
2023/03/16 05:34:19;;;;;;;15.13;7.93;;;;;;;-144.87;100.00;61487.56;4952920;28;20039;-82
2023/03/16 05:36:47;;;;;;;14.38;8.30;;;;;;;-144.87;100.00;61487.56;4942730;28;20041;-80
2023/03/16 05:39:16;;;;;;;17.00;8.18;;;;;;;-144.87;100.00;61487.56;4960473;28;20062;-82
2023/03/16 05:41:46;;;;;;;15.60;7.95;;;;;;;-144.87;100.00;61487.56;4935782;28;20030;-81
2023/03/16 05:44:27;;;;;;;14.60;8.85;;;;;;;-144.87;100.00;61487.56;4966489;28;20121;-82
2023/03/16 05:47:13;;;;;;;13.00;8.48;;;;;;;-144.87;100.00;61487.56;4973852;28;20068;-82
2023/03/16 05:49:44;;;;;;;12.35;8.38;;;;;;;-144.87;100.00;61487.56;4946480;28;20043;-82
2023/03/16 05:52:20;;;;;;;14.43;8.70;;;;;;;-144.87;100.00;61487.56;4959960;28;20071;-82
2023/03/16 05:54:47;;;;;;;15.60;8.02;;;;;;;-144.87;100.00;61487.56;4952817;28;20116;-82
2023/03/16 05:57:14;;;;;;;13.82;7.57;;;;;;;-144.87;100.00;61487.56;4944291;28;20367;-81
2023/03/16 05:59:43;;;;;;;15.52;8.07;;;;;;;-144.87;100.00;61487.56;4983533;28;20034;-81
2023/03/16 06:02:12;;;;;;;17.15;7.72;;;;;;;-144.87;100.00;61487.56;4948492;28;20200;-82
2023/03/16 06:04:39;;;;;;;16.60;7.50;;;;;;;-144.87;100.00;61487.56;4941165;28;20416;-81
2023/03/16 06:07:06;;;;;;;13.48;6.97;;;;;;;-144.87;100.00;61487.56;4973329;28;20040;-81
2023/03/16 06:09:33;;;;;;;14.32;7.68;;;;;;;-144.87;100.00;61487.56;4948652;28;20381;-81
2023/03/16 06:12:02;;;;;;;12.05;6.40;;;;;;;-144.87;100.00;61487.56;4951670;28;20050;-80
2023/03/16 06:14:29;;;;;;;13.32;7.22;;;;;;;-144.87;100.00;61487.56;4954885;28;20035;-82
2023/03/16 06:16:56;;;;;;;13.55;7.05;;;;;;;-144.87;100.00;61487.56;4969451;28;20182;-82
2023/03/16 06:19:22;;;;;;;15.68;6.97;;;;;;;-144.87;100.00;61487.56;4943787;28;20047;-82
2023/03/16 06:21:54;;;;;;;12.95;7.32;;;;;;;-144.87;100.00;61487.56;4963791;28;20049;-81
2023/03/16 06:24:21;;;;;;;15.93;7.43;;;;;;;-144.87;100.00;61487.56;4961228;28;20038;-81
2023/03/16 06:26:47;;;;;;;12.13;6.80;;;;;;;-144.87;100.00;61487.56;4945197;28;20057;-81
2023/03/16 06:29:14;;;;;;;12.00;6.95;;;;;;;-144.87;100.00;61487.56;4943616;28;20035;-86
2023/03/16 06:31:41;;;;;;;12.48;7.10;;;;;;;-144.87;100.00;61487.56;4962109;28;20026;-83
2023/03/16 06:34:07;;;;;;;19.02;8.27;;;;;;;-144.87;100.00;61487.56;4944078;28;20023;-83
2023/03/16 06:36:34;;;;;;;16.40;8.13;;;;;;;-144.87;100.00;61487.56;4962364;28;20034;-85
2023/03/16 06:39:03;;;;;;;14.23;7.07;;;;;;;-144.87;100.00;61487.56;4953189;28;20039;-82
2023/03/16 06:41:41;;;;;;;11.63;7.10;;;;;;;-144.87;100.00;61487.56;4955660;28;20391;-85
2023/03/16 06:44:08;;;;;;;13.68;7.10;;;;;;;-144.87;100.00;61487.56;4961274;28;20034;-82
2023/03/16 06:46:39;;;;;;;13.65;7.53;;;;;;;-144.87;100.00;61487.56;4957816;28;20047;-84
2023/03/16 06:49:07;;;;;;;13.77;6.90;;;;;;;-144.87;100.00;61487.56;4950609;28;20035;-83
2023/03/16 06:51:33;;;;;;;13.10;6.75;;;;;;;-144.87;100.00;61487.56;4943648;28;20105;-83
2023/03/16 06:54:00;;;;;;;12.80;6.30;;;;;;;-144.87;100.00;61487.56;4959993;28;20045;-82
2023/03/16 06:56:26;;;;;;;12.10;6.78;;;;;;;-144.87;100.00;61487.56;4964577;28;20078;-82
2023/03/16 06:58:53;;;;;;;13.48;6.53;;;;;;;-144.87;100.00;61487.56;4963468;28;20034;-83
2023/03/16 07:01:20;;;;;;;13.65;6.55;;;;;;;-144.87;100.00;61487.56;4945406;28;20155;-82
2023/03/16 07:03:46;;;;;;;14.15;6.68;;;;;;;-144.87;100.00;61487.56;4975543;28;20093;-83
2023/03/16 07:06:21;;;;;;;11.18;6.60;;;;;;;-144.87;100.00;61487.56;4940856;28;20038;-83
2023/03/16 07:08:47;;;;;;;17.70;7.10;;;;;;;-144.87;100.00;61487.56;4924222;28;20046;-84
2023/03/16 07:11:14;;;;;;;12.57;7.18;;;;;;;-144.87;100.00;61487.56;4959922;28;20121;-84
2023/03/16 07:13:40;;;;;;;16.23;7.22;;;;;;;-144.87;100.00;61487.56;4940802;28;20041;-83
2023/03/16 07:16:08;;;;;;;15.43;6.68;;;;;;;-144.87;100.00;61487.56;4942664;28;20596;-84
2023/03/16 07:18:36;;;;;;;14.60;7.30;;;;;;;-144.87;100.00;61487.56;4972347;28;20042;-84
2023/03/16 07:21:03;;;;;;;12.65;8.43;;;;;;;-144.87;100.00;61487.56;4960056;28;20032;-85
2023/03/16 07:23:31;;;;;;;13.13;7.78;;;;;;;-144.87;100.00;61487.56;4955256;28;20038;-84
2023/03/16 07:26:03;;;;;;;11.90;7.15;;;;;;;-144.87;100.00;61487.56;4955030;28;20645;-85
2023/03/16 07:28:31;;;;;;;16.83;7.97;;;;;;;-144.87;100.00;61487.56;4955193;28;20408;-85
2023/03/16 07:30:58;;;;;;;16.98;7.55;;;;;;;-144.87;100.00;61487.56;4939431;28;20031;-87
2023/03/16 07:33:25;;;;;;;14.27;7.47;;;;;;;-144.87;100.00;61487.56;4955144;28;20046;-84
2023/03/16 07:35:51;;;;;;;21.48;7.85;;;;;;;-144.87;100.00;61487.56;4938360;28;20133;-86
2023/03/16 07:38:20;;;;;;;16.77;7.82;;;;;;;-144.87;100.00;61487.56;4939494;28;20030;-86
2023/03/16 07:40:46;;;;;;;16.52;7.60;;;;;;;-144.87;100.00;61487.56;4940304;28;20042;-85
2023/03/16 07:43:19;;;;;;;11.45;7.45;;;;;;;-144.87;100.00;61487.56;4925910;28;20058;-86
2023/03/16 07:45:50;;;;;;;16.15;7.55;;;;;;;-144.87;100.00;61487.56;4931458;28;20051;-84
2023/03/16 07:48:18;;;;;;;18.95;8.70;;;;;;;-144.87;100.00;61487.56;4954936;28;20042;-84
2023/03/16 07:50:50;;;;;;;17.75;8.32;;;;;;;-144.87;100.00;61487.56;4954794;28;20030;-84
2023/03/16 07:53:16;;;;;;;16.90;9.32;;;;;;;-144.87;100.00;61487.56;4954108;28;20529;-88
2023/03/16 07:55:46;;;;;;;16.57;8.93;;;;;;;-144.87;100.00;61487.56;4952793;28;20551;-87
2023/03/16 07:58:13;;;;;;;14.60;9.02;;;;;;;-144.87;100.00;61487.56;4954653;28;20046;-83
2023/03/16 08:00:42;;;;;;;14.60;8.25;;;;;;;-144.87;100.00;61487.56;4935546;29;20115;-87
2023/03/16 08:03:09;;;;;;;14.32;7.32;;;;;;;-144.87;100.00;61487.56;4936009;29;20043;-85
2023/03/16 08:05:35;;;;;;;13.68;7.60;;;;;;;-144.87;100.00;61487.56;4935417;28;20626;-85
2023/03/16 08:08:08;;;;;;;13.32;8.13;;;;;;;-144.87;100.00;61487.56;4939766;28;20038;-88
2023/03/16 08:10:36;;;;;;;10.40;6.35;;;;;;;-144.87;100.00;61487.56;4938299;28;20122;-84
2023/03/16 08:13:25;;;;;;;13.57;7.68;;;;;;;-144.87;100.00;61487.56;4954701;28;20117;-84
2023/03/16 08:15:57;;;;;;;15.27;7.22;;;;;;;-144.87;100.00;61487.56;4972010;28;20061;-85
2023/03/16 08:18:33;;;;;;;13.05;7.15;;;;;;;-144.87;100.00;61487.56;4940689;28;20555;-86
2023/03/16 08:21:00;;;;;;;13.43;6.93;;;;;;;-144.87;100.00;61487.56;4938189;28;20030;-85
2023/03/16 08:23:28;;;;;;;13.38;7.22;;;;;;;-144.87;100.00;61487.56;4938185;28;20061;-85
2023/03/16 08:25:56;;;;;;;11.75;7.50;;;;;;;-144.87;100.00;61487.56;4954678;28;20528;-84
2023/03/16 08:28:24;;;;;;;12.32;7.28;;;;;;;-144.87;100.00;61487.56;4938831;28;20093;-85
2023/03/16 08:30:52;;;;;;;13.52;7.20;;;;;;;-144.87;100.00;61487.56;4952941;28;20026;-85
2023/03/16 08:33:43;;;;;;;16.52;7.15;;;;;;;-144.87;100.00;61487.56;4956656;28;20050;-83
2023/03/16 08:36:12;;;;;;;14.40;6.97;;;;;;;-144.87;100.00;61487.56;4938514;28;20416;-84
2023/03/16 08:38:40;;;;;;;12.00;7.30;;;;;;;-144.87;100.00;61487.56;4937945;28;20047;-83
2023/03/16 08:41:11;;;;;;;12.32;6.70;;;;;;;-144.87;100.00;61487.56;4952208;28;20093;-84
2023/03/16 08:43:39;;;;;;;11.13;6.85;;;;;;;-144.87;100.00;61487.56;4958250;28;20034;-84
2023/03/16 08:46:05;;;;;;;9.75;6.35;;;;;;;-144.87;100.00;61487.56;4973211;28;20507;-85
2023/03/16 08:48:43;;;;;;;13.57;6.80;;;;;;;-144.87;100.00;61487.56;4950118;28;20039;-85
2023/03/16 08:51:10;;;;;;;13.40;6.35;;;;;;;-144.87;100.00;61487.56;4937250;28;20054;-83
2023/03/16 08:53:36;;;;;;;10.20;6.75;;;;;;;-144.87;100.00;61487.56;4937062;28;20042;-88
2023/03/16 08:56:11;;;;;;;12.75;6.35;;;;;;;-144.87;100.00;61487.56;4953264;28;20035;-84
2023/03/16 08:58:38;;;;;;;12.98;7.03;;;;;;;-144.87;100.00;61487.56;4938294;28;20503;-85
2023/03/16 09:01:05;;;;;;;14.32;6.97;;;;;;;-144.87;100.00;61487.56;4952906;28;20030;-85
2023/03/16 09:03:34;;;;;;;11.25;6.35;;;;;;;-144.87;100.00;61487.56;4982760;28;20166;-83
2023/03/16 09:06:03;;;;;;;11.48;5.80;;;;;;;-144.87;100.00;61487.56;4951954;28;20050;-85
2023/03/16 09:08:30;;;;;;;11.85;6.22;;;;;;;-144.87;100.00;61487.56;4950954;28;20055;-83
2023/03/16 09:11:06;;;;;;;12.90;6.10;;;;;;;-144.87;100.00;61487.56;4965318;28;20029;-83
2023/03/16 09:13:33;;;;;;;12.30;5.75;;;;;;;-144.87;100.00;61487.56;4962578;28;20070;-83
2023/03/16 09:15:59;;;;;;;11.73;5.85;;;;;;;-144.87;100.00;61487.56;4973499;28;20125;-81
2023/03/16 09:18:26;;;;;;;9.00;6.03;;;;;;;-144.87;100.00;61487.56;4957730;28;20051;-83
2023/03/16 09:21:01;;;;;;;11.32;6.00;;;;;;;-144.87;100.00;61487.56;4957562;28;20058;-83
2023/03/16 09:23:28;;;;;;;8.57;5.45;;;;;;;-144.87;100.00;61487.56;4956190;28;20038;-84
2023/03/16 09:25:59;;;;;;;13.80;6.18;;;;;;;-144.87;100.00;61487.56;4939325;28;20513;-83
2023/03/16 09:28:29;;;;;;;;;;;;;;;-144.87;100.00;61487.56;4975075;28;20039;-82
2023/03/16 09:30:57;;;;;;;16.48;6.18;;;;;;;-144.87;100.00;61487.56;4941440;28;19913;-83
2023/03/16 09:33:24;;;;;;;10.05;5.57;;;;;;;-144.87;100.00;61487.56;4974705;28;20691;-84
2023/03/16 09:35:51;;;;;;;9.48;5.68;;;;;;;-144.87;100.00;61487.56;4956743;28;20038;-82
2023/03/16 09:38:20;;;;;;;11.30;5.68;;;;;;;-144.87;100.00;61487.56;4957717;28;20035;-84
2023/03/16 09:41:05;;;;;;;15.18;5.78;;;;;;;-144.87;100.00;61487.56;4974640;28;20054;-83
2023/03/16 09:43:51;;;;;;;7.55;5.18;;;;;;;-144.87;100.00;61487.56;4967317;28;20048;-84
2023/03/16 09:46:30;;;;;;;12.75;5.13;;;;;;;-144.87;100.00;61487.56;4974086;28;20130;-86
2023/03/16 09:48:57;;;;;;;10.07;4.90;;;;;;;-144.87;100.00;61487.56;4957285;28;20030;-84
2023/03/16 09:51:48;;;;;;;10.02;4.93;;;;;;;-144.87;100.00;61487.56;4940810;28;20117;-85
2023/03/16 09:54:38;;;;;;;7.43;4.15;;;;;;;-144.87;100.00;61487.56;4912473;28;20062;-86
2023/03/16 09:57:10;;;;;;;7.43;4.75;;;;;;;-144.87;100.00;61487.56;4957205;28;20035;-86
2023/03/16 09:59:36;;;;;;;8.63;5.10;;;;;;;-144.87;100.00;61487.56;4974270;28;20057;-86
2023/03/16 10:02:37;;;;;;;16.20;4.90;;;;;;;-144.87;100.00;61487.56;4973629;28;20034;-84
2023/03/16 10:05:09;;;;;;;7.07;3.90;;;;;;;-144.87;100.00;61487.56;4974015;28;20039;-84
2023/03/16 10:07:53;;;;;;;10.73;4.25;;;;;;;-144.87;100.00;61487.56;4940761;28;20030;-82
2023/03/16 10:10:27;;;;;;;8.52;4.55;;;;;;;-144.87;100.00;61487.56;4956469;28;20101;-83
2023/03/16 10:12:53;;;;;;;11.82;4.50;;;;;;;-144.87;100.00;61487.56;4973731;28;20038;-83
2023/03/16 10:15:26;;;;;;;8.15;3.72;;;;;;;-144.87;100.00;61487.56;4973901;28;20035;-84
2023/03/16 10:17:59;;;;;;;8.30;3.40;;;;;;;-144.87;100.00;61487.56;4940596;28;20118;-86
2023/03/16 10:20:31;;;;;;;8.90;3.85;;;;;;;-144.87;100.00;61487.56;4955949;28;20046;-84
2023/03/16 10:23:00;;;;;;;6.78;3.60;;;;;;;-144.87;100.00;61487.56;4953608;29;20031;-84
2023/03/16 10:25:42;;;;;;;7.82;3.92;;;;;;;-144.87;100.00;61487.56;4953513;29;20051;-84
2023/03/16 10:28:17;;;;;;;7.25;3.28;;;;;;;-144.87;100.00;61487.56;4972173;28;20043;-80
2023/03/16 10:30:44;;;;;;;9.60;3.70;;;;;;;-144.87;100.00;61487.56;4972013;28;20027;-85
2023/03/16 10:33:18;;;;;;;6.10;3.70;;;;;;;-144.87;100.00;61487.56;4956229;28;20038;-87
2023/03/16 10:36:02;;;;;;;7.07;3.42;;;;;;;-144.87;100.00;61487.56;4955956;28;20050;-82
2023/03/16 10:38:53;;;;;;;6.60;3.58;;;;;;;-144.87;100.00;61487.56;4940154;28;20038;-83
2023/03/16 10:41:22;;;;;;;7.35;3.35;;;;;;;-144.87;100.00;61487.56;4980383;28;20043;-82
2023/03/16 10:44:12;;;;;;;8.70;3.58;;;;;;;-144.87;100.00;61487.56;4972869;28;20547;-82
2023/03/16 10:46:46;;;;;;;6.43;3.50;;;;;;;-144.87;100.00;61487.56;4940518;28;20057;-84
2023/03/16 10:49:27;;;;;;;7.10;3.63;;;;;;;-144.87;100.00;61487.56;4959870;28;20042;-85
2023/03/16 10:51:58;;;;;;;8.32;3.40;;;;;;;-144.87;100.00;61487.56;4936327;29;20031;-82
2023/03/16 10:54:29;;;;;;;;;;;;;;;-144.87;100.00;61487.56;4929936;28;20030;-84
2023/03/16 10:56:57;;;;;;;9.23;3.33;;;;;;;-144.87;100.00;61487.56;4939737;28;20000;-81
2023/03/16 10:59:33;;;;;;;7.90;3.47;;;;;;;-144.87;100.00;61487.56;4973060;28;20041;-82
2023/03/16 11:02:07;;;;;;;10.18;3.75;;;;;;;-144.87;100.00;61487.56;4960641;28;20039;-83
2023/03/16 11:04:33;;;;;;;6.38;3.13;;;;;;;-144.87;100.00;61487.56;4936242;29;20039;-84
2023/03/16 11:07:00;;;;;;;8.25;3.42;;;;;;;-144.87;100.00;61487.56;4944425;28;20418;-83
2023/03/16 11:09:36;;;;;;;8.43;3.90;;;;;;;-144.87;100.00;61487.56;4927415;29;20069;-83
2023/03/16 11:12:24;;;;;;;8.35;3.47;;;;;;;-144.87;100.00;61487.56;4952873;29;20043;-83
2023/03/16 11:14:51;;;;;;;7.43;3.47;;;;;;;-144.87;100.00;61487.56;4953616;29;20544;-84
2023/03/16 11:17:38;;;;;;;8.35;3.47;;;;;;;-144.87;100.00;61487.56;4920512;29;20058;-83
2023/03/16 11:20:11;;;;;;;5.40;3.40;;;;;;;-144.87;100.00;61487.56;4936271;29;20073;-82
2023/03/16 11:22:38;;;;;;;8.52;4.00;;;;;;;-144.87;100.00;61487.56;4935134;29;20034;-84
2023/03/16 11:25:14;;;;;;;8.80;3.58;;;;;;;-144.87;100.00;61487.56;4952124;28;20047;-83